Time;durP1;ratioP1;P1;durP2;ratioP2;P2;SDS_P1;SDS_P2;PMS_P1;PMS_P2;Temp;Humidity;BMP_temperature;BMP_pressure;BME280_temperature;BME280_humidity;BME280_pressure;Samples;Min_cycle;Max_cycle;Signal;HPM_P1;HPM_P2
2022/11/15 00:00:12;;;;;;;0.00;0.00;;;;;;;10.87;85.58;98408.38;4936231;29;20303;-57
2022/11/15 00:02:59;;;;;;;0.00;0.00;;;;;;;11.04;83.86;98404.03;4938904;29;20326;-56
2022/11/15 00:05:44;;;;;;;0.00;0.00;;;;;;;11.00;83.68;98403.53;4941626;29;20761;-58
2022/11/15 00:08:30;;;;;;;0.00;0.00;;;;;;;11.11;83.80;98405.03;4939742;29;20239;-58
2022/11/15 00:11:16;;;;;;;0.00;0.00;;;;;;;11.28;83.36;98405.88;4931992;29;20243;-58
2022/11/15 00:14:02;;;;;;;0.00;0.00;;;;;;;11.41;82.63;98409.81;4938324;29;20243;-58
2022/11/15 00:16:47;;;;;;;0.00;0.00;;;;;;;11.31;83.55;98399.50;4940134;29;20718;-59
2022/11/15 00:19:33;;;;;;;0.00;0.00;;;;;;;11.30;84.01;98401.31;4938859;29;20375;-59
2022/11/15 00:22:18;;;;;;;0.00;0.00;;;;;;;11.41;82.81;98407.19;4937121;29;20259;-58
2022/11/15 00:25:04;;;;;;;0.00;0.00;;;;;;;11.47;82.92;98402.13;4934141;29;20243;-58
2022/11/15 00:27:51;;;;;;;0.00;0.00;;;;;;;11.60;82.32;98400.84;4938471;29;20735;-59
2022/11/15 00:30:36;;;;;;;0.00;0.00;;;;;;;11.78;81.75;98408.50;4939091;29;20248;-58
2022/11/15 00:33:22;;;;;;;0.00;0.00;;;;;;;11.86;81.02;98389.41;4939646;29;20252;-56
2022/11/15 00:36:10;;;;;;;0.00;0.00;;;;;;;12.03;79.85;98387.59;4937710;29;20579;-56
2022/11/15 00:38:55;;;;;;;0.00;0.00;;;;;;;12.08;79.55;98377.44;4938608;29;20288;-54
2022/11/15 00:41:40;;;;;;;0.00;0.00;;;;;;;12.11;79.79;98379.72;4940977;29;20248;-58
2022/11/15 00:44:25;;;;;;;0.00;0.00;;;;;;;12.19;79.44;98365.84;4935340;29;20765;-58
2022/11/15 00:47:12;;;;;;;0.00;0.00;;;;;;;12.20;79.13;98370.06;4935060;29;20368;-56
2022/11/15 00:49:57;;;;;;;0.00;0.00;;;;;;;12.18;79.75;98364.19;4936830;29;20234;-55
2022/11/15 00:52:44;;;;;;;0.00;0.00;;;;;;;12.15;79.77;98360.09;4936984;29;20243;-57
2022/11/15 00:55:30;;;;;;;0.00;0.00;;;;;;;12.05;80.42;98357.69;4940465;29;20252;-57
2022/11/15 00:58:15;;;;;;;0.00;0.00;;;;;;;12.01;82.13;98356.38;4935570;29;20245;-57
2022/11/15 01:01:06;;;;;;;0.00;0.00;;;;;;;11.99;82.46;98357.50;4935036;29;20306;-56
2022/11/15 01:03:52;;;;;;;0.00;0.00;;;;;;;11.96;83.35;98356.03;4938705;29;20235;-56
2022/11/15 01:06:37;;;;;;;0.00;0.00;;;;;;;11.91;82.96;98363.56;4939077;29;20259;-57
2022/11/15 01:09:24;;;;;;;0.00;0.00;;;;;;;11.82;85.92;98360.13;4939203;29;20237;-57
2022/11/15 01:12:09;;;;;;;0.00;0.00;;;;;;;11.74;85.91;98354.91;4937795;28;22094;-57
2022/11/15 01:14:54;;;;;;;0.00;0.00;;;;;;;11.76;86.09;98360.78;4937414;28;20236;-55
2022/11/15 01:17:39;;;;;;;0.00;0.00;;;;;;;11.77;85.76;98358.03;4944231;28;20304;-56
2022/11/15 01:20:24;;;;;;;0.00;0.00;;;;;;;11.69;86.54;98351.97;4941247;28;20239;-57
2022/11/15 01:23:10;;;;;;;0.00;0.00;;;;;;;11.63;86.65;98354.28;4938218;28;20332;-57
2022/11/15 01:26:01;;;;;;;0.00;0.00;;;;;;;11.57;87.70;98354.94;4938539;28;20304;-57
2022/11/15 01:28:46;;;;;;;0.00;0.00;;;;;;;11.49;87.69;98350.50;4940756;28;20268;-56
2022/11/15 01:31:31;;;;;;;0.00;0.00;;;;;;;11.42;89.82;98343.50;4940539;28;20778;-57
2022/11/15 01:34:16;;;;;;;0.00;0.00;;;;;;;11.34;90.73;98339.06;4942069;28;20265;-55
2022/11/15 01:37:01;;;;;;;0.00;0.00;;;;;;;11.20;90.55;98340.53;4941188;28;20241;-56
2022/11/15 01:39:46;;;;;;;0.00;0.00;;;;;;;11.13;90.51;98337.75;4938703;28;20619;-57
2022/11/15 01:42:32;;;;;;;0.00;0.00;;;;;;;11.14;90.34;98333.34;4942104;28;20245;-57
2022/11/15 01:45:17;;;;;;;0.00;0.00;;;;;;;10.98;92.09;98324.50;4938211;28;20590;-55
2022/11/15 01:48:03;;;;;;;0.00;0.00;;;;;;;10.98;94.66;98328.94;4940619;28;20694;-57
2022/11/15 01:50:49;;;;;;;0.00;0.00;;;;;;;10.91;96.17;98331.34;4938017;29;20246;-56
2022/11/15 01:53:36;;;;;;;0.00;0.00;;;;;;;10.85;95.91;98311.94;4937211;29;20239;-55
2022/11/15 01:56:24;;;;;;;0.00;0.00;;;;;;;10.84;94.94;98325.97;4934097;29;20231;-56
2022/11/15 01:59:11;;;;;;;0.00;0.00;;;;;;;10.82;95.00;98314.03;4935739;29;21723;-57
2022/11/15 02:01:57;;;;;;;0.00;0.00;;;;;;;10.76;96.54;98312.88;4934982;29;20251;-56
2022/11/15 02:04:44;;;;;;;0.00;0.00;;;;;;;10.74;96.87;98314.84;4938115;29;20365;-56
2022/11/15 02:07:31;;;;;;;0.00;0.00;;;;;;;10.67;96.95;98308.63;4936594;29;20314;-57
2022/11/15 02:10:19;;;;;;;0.00;0.00;;;;;;;10.62;97.98;98288.19;4936289;29;20232;-56
2022/11/15 02:13:05;;;;;;;0.00;0.00;;;;;;;10.56;98.92;98287.06;4934448;29;20233;-57
2022/11/15 02:16:03;;;;;;;0.00;0.00;;;;;;;10.51;99.21;98284.09;4933345;29;20235;-56
2022/11/15 02:18:53;;;;;;;0.00;0.00;;;;;;;10.46;99.31;98286.38;4938158;29;20256;-56
2022/11/15 02:21:45;;;;;;;0.00;0.00;;;;;;;10.40;99.88;98266.13;4935069;29;20248;-56
2022/11/15 02:25:00;;;;;;;0.00;0.00;;;;;;;10.34;100.00;98267.56;4930054;29;20319;-56
2022/11/15 02:28:26;;;;;;;0.00;0.00;;;;;;;10.24;100.00;98274.69;4937891;29;20610;-56
2022/11/15 02:31:18;;;;;;;0.00;0.00;;;;;;;10.25;100.00;98268.50;4935211;29;20252;-57
2022/11/15 02:34:10;;;;;;;0.00;0.00;;;;;;;10.26;100.00;98264.94;4932385;29;20244;-57
2022/11/15 02:37:01;;;;;;;0.00;0.00;;;;;;;10.49;100.00;98270.41;4937560;28;20712;-57
2022/11/15 02:39:52;;;;;;;0.00;0.00;;;;;;;10.70;94.61;98269.94;4937521;29;20265;-55
2022/11/15 02:45:54;;;;;;;0.00;0.00;;;;;;;10.95;95.31;98274.41;4925980;28;20288;-56
2022/11/15 02:48:44;;;;;;;0.00;0.00;;;;;;;11.07;92.12;98266.09;4937709;29;20285;-57
2022/11/15 02:51:29;;;;;;;0.00;0.00;;;;;;;11.27;87.22;98263.16;4937835;29;20428;-57
2022/11/15 02:54:18;;;;;;;0.00;0.00;;;;;;;11.41;87.30;98269.50;4916646;29;20374;-56
2022/11/15 02:57:06;;;;;;;0.00;0.00;;;;;;;11.44;91.51;98257.91;4920079;29;20395;-56
2022/11/15 03:00:05;;;;;;;0.00;0.00;;;;;;;11.33;91.55;98257.28;4935682;29;20323;-57
2022/11/15 03:03:03;;;;;;;0.00;0.00;;;;;;;11.31;92.08;98261.00;4934852;29;20283;-56
2022/11/15 03:05:57;;;;;;;0.00;0.00;;;;;;;11.23;93.09;98262.66;4928653;29;20256;-57
2022/11/15 03:08:54;;;;;;;0.00;0.00;;;;;;;11.07;94.74;98257.44;4917594;29;20245;-56
2022/11/15 03:11:45;;;;;;;0.00;0.00;;;;;;;10.97;96.81;98246.34;4917171;29;20249;-57
2022/11/15 03:14:35;;;;;;;0.00;0.00;;;;;;;10.87;97.61;98236.88;4936422;29;20292;-56
2022/11/15 03:17:26;;;;;;;0.00;0.00;;;;;;;10.79;99.12;98247.31;4913862;29;20242;-57
2022/11/15 03:20:14;;;;;;;0.00;0.00;;;;;;;10.70;100.00;98241.25;4917368;29;20314;-57
2022/11/15 03:23:05;;;;;;;0.00;0.00;;;;;;;10.60;100.00;98241.41;4915488;29;20367;-56
2022/11/15 03:25:52;;;;;;;0.00;0.00;;;;;;;10.57;100.00;98243.53;4914633;29;20312;-56
2022/11/15 03:28:42;;;;;;;0.00;0.00;;;;;;;10.47;100.00;98238.44;4921227;29;20597;-57
2022/11/15 03:31:48;;;;;;;0.00;0.00;;;;;;;10.46;100.00;98242.00;4921167;29;20248;-56
2022/11/15 03:34:38;;;;;;;0.00;0.00;;;;;;;10.44;100.00;98243.97;4930228;29;20253;-56
2022/11/15 03:37:42;;;;;;;0.00;0.00;;;;;;;10.39;98.43;98244.47;4928620;29;20368;-56
2022/11/15 03:40:36;;;;;;;0.00;0.00;;;;;;;10.32;97.27;98246.84;4936118;29;20630;-56
2022/11/15 03:43:34;;;;;;;0.00;0.00;;;;;;;10.29;97.46;98254.97;4925307;29;20453;-56
2022/11/15 03:46:26;;;;;;;0.00;0.00;;;;;;;10.25;97.08;98247.66;4933664;29;20240;-56
2022/11/15 03:49:16;;;;;;;0.00;0.00;;;;;;;10.27;96.51;98243.88;4925291;29;20693;-57
2022/11/15 03:52:03;;;;;;;0.00;0.00;;;;;;;10.20;96.48;98255.94;4920472;29;20329;-56
2022/11/15 03:54:50;;;;;;;0.00;0.00;;;;;;;10.15;97.14;98245.16;4926782;29;20303;-59
2022/11/15 03:57:37;;;;;;;0.00;0.00;;;;;;;10.13;98.24;98241.88;4925890;29;20239;-56
2022/11/15 04:00:23;;;;;;;0.00;0.00;;;;;;;10.13;98.30;98240.09;4923215;29;20248;-56
2022/11/15 04:03:08;;;;;;;0.00;0.00;;;;;;;10.08;99.37;98242.38;4925824;29;20589;-61
2022/11/15 04:05:53;;;;;;;0.00;0.00;;;;;;;10.09;99.44;98243.16;4920942;29;20241;-57
2022/11/15 04:08:38;;;;;;;0.00;0.00;;;;;;;10.06;99.88;98252.13;4931519;29;20263;-56
2022/11/15 04:11:24;;;;;;;0.00;0.00;;;;;;;10.06;100.00;98249.53;4922107;29;20233;-57
2022/11/15 04:14:10;;;;;;;0.00;0.00;;;;;;;10.10;100.00;98247.41;4928888;29;20235;-57
2022/11/15 04:16:55;;;;;;;0.00;0.00;;;;;;;10.03;100.00;98250.66;4921708;29;20245;-56
2022/11/15 04:25:51;;;;;;;0.00;0.00;;;;;;;10.06;100.00;98227.88;4920403;29;20248;-56
2022/11/15 04:29:33;;;;;;;0.00;0.00;;;;;;;10.04;100.00;98233.22;4926724;29;20237;-57
2022/11/15 04:31:44;;;;;;;0.00;0.00;;;;;;;10.06;100.00;98226.06;5125649;23;20350;-56
2022/11/15 04:34:29;;;;;;;0.00;0.00;;;;;;;10.00;100.00;98224.06;4917832;28;20368;-57
2022/11/15 04:37:15;;;;;;;0.00;0.00;;;;;;;9.99;100.00;98228.50;4921576;28;20286;-57
2022/11/15 04:40:01;;;;;;;0.00;0.00;;;;;;;10.03;100.00;98221.16;4919538;29;20819;-57
2022/11/15 04:42:46;;;;;;;0.00;0.00;;;;;;;10.02;100.00;98224.75;4910082;29;20250;-56
2022/11/15 04:45:31;;;;;;;0.00;0.00;;;;;;;10.01;100.00;98226.53;4908422;29;20790;-56
2022/11/15 04:48:18;;;;;;;0.00;0.00;;;;;;;9.98;100.00;98226.03;4909313;29;20607;-54
2022/11/15 04:51:03;;;;;;;0.00;0.00;;;;;;;9.99;100.00;98225.03;4897478;29;20240;-57
2022/11/15 04:53:48;;;;;;;0.00;0.00;;;;;;;9.93;100.00;98212.63;4897904;29;20727;-56
2022/11/15 04:56:33;;;;;;;0.00;0.00;;;;;;;9.88;100.00;98215.72;4908990;29;20240;-57
2022/11/15 04:59:19;;;;;;;0.00;0.00;;;;;;;9.88;100.00;98220.94;4903815;29;20260;-57
2022/11/15 05:02:04;;;;;;;0.00;0.00;;;;;;;9.82;100.00;98205.94;4887865;29;20580;-56
2022/11/15 05:04:49;;;;;;;0.00;0.00;;;;;;;9.77;100.00;98210.78;4895759;29;20591;-57
2022/11/15 05:07:35;;;;;;;0.00;0.00;;;;;;;9.75;100.00;98221.34;4900787;29;20271;-57
2022/11/15 05:10:20;;;;;;;0.00;0.00;;;;;;;9.67;100.00;98213.50;4906801;29;20312;-56
2022/11/15 05:13:05;;;;;;;0.00;0.00;;;;;;;9.59;100.00;98209.88;4906464;29;20341;-56
2022/11/15 05:15:50;;;;;;;0.00;0.00;;;;;;;9.69;100.00;98201.94;4888475;29;20262;-56
2022/11/15 05:18:35;;;;;;;0.00;0.00;;;;;;;9.78;100.00;98196.78;4895728;29;20236;-56
2022/11/15 05:21:23;;;;;;;0.00;0.00;;;;;;;9.78;100.00;98202.78;4907710;29;20248;-56
2022/11/15 05:24:11;;;;;;;0.00;0.00;;;;;;;9.87;100.00;98193.25;4906542;29;20225;-57
2022/11/15 05:26:56;;;;;;;0.00;0.00;;;;;;;9.86;100.00;98191.59;4906207;29;20243;-56
2022/11/15 05:29:41;;;;;;;0.00;0.00;;;;;;;9.89;100.00;98201.72;4910515;29;20638;-56
2022/11/15 05:32:27;;;;;;;0.00;0.00;;;;;;;9.86;100.00;98202.84;4908272;29;20721;-56
2022/11/15 05:35:18;;;;;;;0.00;0.00;;;;;;;9.88;100.00;98202.69;4897837;29;20593;-57
2022/11/15 05:38:04;;;;;;;0.00;0.00;;;;;;;9.88;100.00;98206.09;4907945;29;20235;-56
2022/11/15 05:40:49;;;;;;;0.00;0.00;;;;;;;9.88;100.00;98202.69;4909539;29;20247;-57
2022/11/15 05:43:38;;;;;;;0.00;0.00;;;;;;;9.93;100.00;98208.25;4908971;29;20730;-56
2022/11/15 05:46:24;;;;;;;0.00;0.00;;;;;;;9.95;100.00;98201.09;4908888;29;20244;-56
2022/11/15 05:49:14;;;;;;;0.00;0.00;;;;;;;9.98;100.00;98199.94;4906278;29;20244;-56
2022/11/15 05:51:59;;;;;;;0.00;0.00;;;;;;;10.07;100.00;98203.41;4906224;29;20260;-56
2022/11/15 05:54:46;;;;;;;0.00;0.00;;;;;;;10.13;100.00;98195.75;4908950;29;20761;-56
2022/11/15 05:57:31;;;;;;;0.00;0.00;;;;;;;10.17;100.00;98196.25;4905320;29;20233;-56
2022/11/15 06:00:17;;;;;;;0.00;0.00;;;;;;;10.19;100.00;98189.91;4907709;29;20600;-57
2022/11/15 06:03:02;;;;;;;0.00;0.00;;;;;;;10.29;100.00;98192.38;4906146;29;20261;-56
2022/11/15 06:05:47;;;;;;;0.00;0.00;;;;;;;10.31;100.00;98194.84;4909633;28;20857;-55
2022/11/15 06:08:32;;;;;;;0.00;0.00;;;;;;;10.32;100.00;98199.88;4907839;29;20256;-56
2022/11/15 06:11:18;;;;;;;0.00;0.00;;;;;;;10.38;98.65;98203.66;4901679;29;20243;-57
2022/11/15 06:14:04;;;;;;;0.00;0.00;;;;;;;10.28;96.48;98202.97;4907419;29;20651;-57
2022/11/15 06:16:49;;;;;;;0.00;0.00;;;;;;;10.17;97.40;98197.09;4907325;29;20240;-57
2022/11/15 06:19:34;;;;;;;0.00;0.00;;;;;;;10.04;98.48;98194.09;4908180;29;20295;-56
2022/11/15 06:22:19;;;;;;;0.00;0.00;;;;;;;9.98;99.54;98192.97;4908186;28;20373;-56
2022/11/15 06:25:04;;;;;;;0.00;0.00;;;;;;;9.95;99.55;98188.06;4905440;29;20633;-57
2022/11/15 06:27:53;;;;;;;0.00;0.00;;;;;;;9.98;100.00;98181.69;4907452;28;20313;-57
2022/11/15 06:30:38;;;;;;;0.00;0.00;;;;;;;9.97;100.00;98180.91;4910582;29;20600;-56
2022/11/15 06:33:23;;;;;;;0.00;0.00;;;;;;;9.91;100.00;98181.53;4905891;29;20248;-56
2022/11/15 06:36:13;;;;;;;0.00;0.00;;;;;;;9.88;100.00;98180.03;4905807;29;20235;-56
2022/11/15 06:38:58;;;;;;;0.00;0.00;;;;;;;9.88;100.00;98171.41;4906533;29;20244;-56
2022/11/15 06:41:44;;;;;;;0.00;0.00;;;;;;;9.89;100.00;98175.66;4908793;29;20576;-56
2022/11/15 06:44:30;;;;;;;0.00;0.00;;;;;;;9.85;100.00;98177.75;4905893;29;20284;-56
2022/11/15 06:47:15;;;;;;;0.00;0.00;;;;;;;9.81;100.00;98178.22;4905299;29;20239;-57
2022/11/15 06:50:00;;;;;;;0.00;0.00;;;;;;;9.77;100.00;98185.53;4906310;29;20700;-57
2022/11/15 06:52:45;;;;;;;0.00;0.00;;;;;;;9.77;100.00;98180.31;4912986;29;20244;-57
2022/11/15 06:55:33;;;;;;;0.00;0.00;;;;;;;9.83;100.00;98182.28;4905352;29;20454;-58
2022/11/15 06:58:18;;;;;;;0.00;0.00;;;;;;;9.78;100.00;98179.34;4905816;29;20243;-57
2022/11/15 07:01:06;;;;;;;0.00;0.00;;;;;;;9.80;100.00;98185.22;4907579;29;20329;-58
2022/11/15 07:03:51;;;;;;;0.00;0.00;;;;;;;9.82;100.00;98190.28;4886898;29;20347;-57
2022/11/15 07:06:37;;;;;;;0.00;0.00;;;;;;;9.83;100.00;98195.31;4889560;29;20716;-57
2022/11/15 07:09:22;;;;;;;0.00;0.00;;;;;;;9.87;100.00;98193.25;4885933;29;20240;-57
2022/11/15 07:12:07;;;;;;;0.00;0.00;;;;;;;9.90;100.00;98191.13;4889653;29;20320;-57
2022/11/15 07:14:52;;;;;;;0.00;0.00;;;;;;;9.91;100.00;98202.38;4884937;29;20258;-56
2022/11/15 07:17:39;;;;;;;0.00;0.00;;;;;;;9.89;100.00;98194.69;4888609;29;20241;-56
2022/11/15 07:20:24;;;;;;;0.00;0.00;;;;;;;9.92;100.00;98200.56;4887681;29;20242;-56
2022/11/15 07:23:09;;;;;;;0.00;0.00;;;;;;;9.96;100.00;98201.91;4889206;29;21021;-56
2022/11/15 07:25:54;;;;;;;0.00;0.00;;;;;;;9.93;100.00;98202.22;4893033;29;20242;-57
2022/11/15 07:28:40;;;;;;;0.00;0.00;;;;;;;9.96;100.00;98194.06;4893353;29;20316;-55
2022/11/15 07:31:25;;;;;;;0.00;0.00;;;;;;;9.99;100.00;98189.38;4896274;29;20300;-57
2022/11/15 07:34:12;;;;;;;0.00;0.00;;;;;;;10.05;100.00;98185.31;4908096;29;20248;-56
2022/11/15 07:36:57;;;;;;;0.00;0.00;;;;;;;10.07;100.00;98177.34;4909974;29;20232;-56
2022/11/15 07:39:42;;;;;;;0.00;0.00;;;;;;;10.11;100.00;98173.41;4912708;29;20312;-56
2022/11/15 07:45:31;;;;;;;0.00;0.00;;;;;;;10.26;100.00;98186.66;4909080;29;20592;-56
2022/11/15 07:48:15;;;;;;;0.00;0.00;;;;;;;10.25;100.00;98191.06;4910273;29;21304;-56
2022/11/15 07:51:02;;;;;;;0.00;0.00;;;;;;;10.31;100.00;98190.41;4906477;29;20347;-57
2022/11/15 07:53:48;;;;;;;0.00;0.00;;;;;;;10.37;100.00;98182.94;4909362;29;20231;-58
2022/11/15 07:56:32;;;;;;;0.00;0.00;;;;;;;10.42;100.00;98191.97;4909939;29;20248;-57
2022/11/15 07:59:19;;;;;;;0.00;0.00;;;;;;;10.58;100.00;98190.34;4910085;29;20686;-57
2022/11/15 08:02:04;;;;;;;0.00;0.00;;;;;;;10.68;100.00;98192.78;4908035;29;20275;-56
2022/11/15 08:04:49;;;;;;;0.00;0.00;;;;;;;10.77;100.00;98187.41;4909513;29;20252;-56
2022/11/15 08:07:37;;;;;;;0.00;0.00;;;;;;;10.92;100.00;98181.53;4909978;29;20245;-55
2022/11/15 08:10:23;;;;;;;0.00;0.00;;;;;;;11.07;100.00;98186.94;4908663;29;20242;-56
2022/11/15 08:13:10;;;;;;;0.00;0.00;;;;;;;11.21;100.00;98188.03;4908716;29;20743;-56
2022/11/15 08:15:59;;;;;;;0.00;0.00;;;;;;;11.30;100.00;98187.06;4908825;29;20715;-57
2022/11/15 08:18:44;;;;;;;0.00;0.00;;;;;;;11.44;100.00;98185.53;4911071;29;20242;-57
2022/11/15 08:21:32;;;;;;;0.00;0.00;;;;;;;11.51;100.00;98177.84;4907049;29;20250;-57
2022/11/15 08:24:20;;;;;;;0.00;0.00;;;;;;;11.58;100.00;98180.59;4907205;29;20968;-56
2022/11/15 08:27:14;;;;;;;0.00;0.00;;;;;;;11.62;100.00;98181.91;4908046;29;20298;-57
2022/11/15 08:29:59;;;;;;;0.00;0.00;;;;;;;11.71;100.00;98182.66;4908119;29;20241;-56
2022/11/15 08:32:45;;;;;;;0.00;0.00;;;;;;;11.81;100.00;98171.03;4909259;29;20279;-56
2022/11/15 08:35:30;;;;;;;0.00;0.00;;;;;;;11.90;100.00;98174.44;4909450;29;20839;-57
2022/11/15 08:38:15;;;;;;;0.00;0.00;;;;;;;12.01;100.00;98178.50;4908566;29;20245;-57
2022/11/15 08:41:04;;;;;;;0.00;0.00;;;;;;;12.06;100.00;98173.59;4908069;29;20286;-57
2022/11/15 08:43:49;;;;;;;0.00;0.00;;;;;;;12.17;100.00;98171.56;4909690;29;20257;-54
2022/11/15 08:46:34;;;;;;;0.00;0.00;;;;;;;12.24;100.00;98173.31;4910203;29;20366;-55
2022/11/15 08:49:19;;;;;;;0.00;0.00;;;;;;;12.34;100.00;98169.66;4908568;29;20246;-57
2022/11/15 08:52:05;;;;;;;0.00;0.00;;;;;;;12.43;100.00;98173.03;4908939;29;20779;-57
2022/11/15 08:54:51;;;;;;;0.00;0.00;;;;;;;12.47;100.00;98169.91;4908023;29;20242;-57
2022/11/15 08:57:37;;;;;;;0.00;0.00;;;;;;;12.50;100.00;98166.09;4912205;29;20244;-56
2022/11/15 09:00:23;;;;;;;0.00;0.00;;;;;;;12.55;100.00;98164.59;4907143;29;20274;-58
2022/11/15 09:03:09;;;;;;;0.00;0.00;;;;;;;12.53;100.00;98166.59;4907368;29;20250;-58
2022/11/15 09:05:55;;;;;;;0.00;0.00;;;;;;;12.58;100.00;98166.03;4907376;29;20239;-58
2022/11/15 09:08:41;;;;;;;0.00;0.00;;;;;;;12.63;100.00;98168.97;4909927;29;20775;-59
2022/11/15 09:11:26;;;;;;;0.00;0.00;;;;;;;12.69;100.00;98155.16;4907605;29;20250;-57
2022/11/15 09:14:13;;;;;;;0.00;0.00;;;;;;;12.75;100.00;98164.09;4904219;29;20602;-59
2022/11/15 09:16:59;;;;;;;0.00;0.00;;;;;;;12.78;100.00;98155.09;4889130;29;20234;-57
2022/11/15 09:19:44;;;;;;;0.00;0.00;;;;;;;12.70;100.00;98156.00;4891011;29;20235;-57
2022/11/15 09:22:29;;;;;;;0.00;0.00;;;;;;;12.71;100.00;98160.25;4902576;29;20374;-57
2022/11/15 09:25:14;;;;;;;0.00;0.00;;;;;;;12.72;100.00;98161.03;4910922;29;20257;-57
2022/11/15 09:28:00;;;;;;;0.00;0.00;;;;;;;12.61;100.00;98152.59;4905872;29;20238;-57
2022/11/15 09:30:46;;;;;;;0.00;0.00;;;;;;;12.63;100.00;98152.44;4909397;29;20610;-57
2022/11/15 09:33:32;;;;;;;0.00;0.00;;;;;;;12.62;100.00;98161.28;4905840;29;20241;-57
2022/11/15 09:36:17;;;;;;;0.00;0.00;;;;;;;12.60;100.00;98163.28;4906043;29;20320;-57
2022/11/15 09:39:02;;;;;;;0.00;0.00;;;;;;;12.62;100.00;98158.69;4906147;29;20243;-57
2022/11/15 09:41:58;;;;;;;0.00;0.00;;;;;;;12.57;100.00;98159.19;4911023;29;20303;-57
2022/11/15 09:44:57;;;;;;;0.00;0.00;;;;;;;12.58;100.00;98162.63;4907016;29;20281;-57
2022/11/15 09:48:14;;;;;;;0.00;0.00;;;;;;;12.52;100.00;98164.13;4907376;29;20317;-56
2022/11/15 09:51:03;;;;;;;0.00;0.00;;;;;;;12.57;100.00;98163.63;4903099;29;20318;-59
2022/11/15 09:53:37;;;;;;;0.00;0.00;;;;;;;12.48;100.00;98168.91;4906591;29;20268;-58
2022/11/15 09:56:14;;;;;;;0.00;0.00;;;;;;;12.50;100.00;98174.78;4906254;29;20230;-58
2022/11/15 09:58:50;;;;;;;0.00;0.00;;;;;;;12.43;100.00;98166.00;4907293;29;20241;-57
2022/11/15 10:01:27;;;;;;;0.00;0.00;;;;;;;12.32;100.00;98167.19;4906474;29;20239;-57
2022/11/15 10:03:59;;;;;;;0.00;0.00;;;;;;;12.34;100.00;98167.84;4902534;29;20236;-58
2022/11/15 10:06:32;;;;;;;0.00;0.00;;;;;;;12.19;100.00;98162.53;4898061;29;20310;-56
2022/11/15 10:09:04;;;;;;;0.00;0.00;;;;;;;12.16;100.00;98156.84;4904624;29;20303;-56
2022/11/15 10:11:33;;;;;;;0.00;0.00;;;;;;;12.15;100.00;98160.47;4909481;29;20238;-57
2022/11/15 10:14:03;;;;;;;0.00;0.00;;;;;;;12.22;100.00;98163.97;4907876;29;20261;-57
2022/11/15 10:17:18;;;;;;;0.00;0.00;;;;;;;12.17;100.00;98171.56;4911192;29;20232;-56
2022/11/15 10:19:57;;;;;;;0.00;0.00;;;;;;;12.10;100.00;98163.56;4906657;29;20242;-58
2022/11/15 10:22:29;;;;;;;0.00;0.00;;;;;;;12.12;100.00;98161.59;4906422;29;20330;-57
2022/11/15 10:25:16;;;;;;;0.00;0.00;;;;;;;12.19;100.00;98162.53;4907717;29;20243;-57
2022/11/15 10:27:45;;;;;;;0.00;0.00;;;;;;;12.25;100.00;98156.63;4908613;29;20710;-56
2022/11/15 10:30:14;;;;;;;0.00;0.00;;;;;;;12.25;100.00;98156.63;4906529;29;20233;-57
2022/11/15 10:32:43;;;;;;;0.00;0.00;;;;;;;12.22;100.00;98149.13;4907859;29;20250;-57
2022/11/15 10:35:24;;;;;;;0.00;0.00;;;;;;;12.34;100.00;98146.91;4905180;29;20888;-57
2022/11/15 10:37:51;;;;;;;0.00;0.00;;;;;;;12.46;100.00;98143.88;4906313;29;20337;-57
2022/11/15 10:40:22;;;;;;;0.00;0.00;;;;;;;12.60;100.00;98142.31;4908070;29;20244;-56
2022/11/15 10:42:49;;;;;;;0.00;0.00;;;;;;;12.58;100.00;98136.44;4905988;29;20677;-57
2022/11/15 10:45:28;;;;;;;0.00;0.00;;;;;;;12.86;100.00;98120.97;4907701;29;20236;-56
2022/11/15 10:48:21;;;;;;;0.00;0.00;;;;;;;13.02;100.00;98114.75;4905526;29;20224;-56
2022/11/15 10:50:50;;;;;;;0.00;0.00;;;;;;;13.12;100.00;98101.41;4905270;29;20700;-58
2022/11/15 10:53:24;;;;;;;0.00;0.00;;;;;;;13.37;100.00;98104.56;4906860;29;20668;-58
2022/11/15 10:55:54;;;;;;;0.00;0.00;;;;;;;13.33;100.00;98094.59;4908477;29;20242;-57
2022/11/15 10:58:27;;;;;;;0.00;0.00;;;;;;;13.41;98.92;98091.91;4913063;29;20228;-57
2022/11/15 11:00:54;;;;;;;0.00;0.00;;;;;;;13.48;100.00;98078.91;4910253;29;20704;-58
2022/11/15 11:03:30;;;;;;;0.00;0.00;;;;;;;13.71;99.95;98063.88;4913742;29;20243;-58
2022/11/15 11:06:10;;;;;;;0.00;0.00;;;;;;;13.75;100.00;98060.88;4908849;29;20239;-57
2022/11/15 11:08:37;;;;;;;0.00;0.00;;;;;;;13.82;100.00;98057.31;4913557;29;20239;-58
2022/11/15 11:11:05;;;;;;;0.00;0.00;;;;;;;13.90;100.00;98048.50;4909072;29;20779;-57
2022/11/15 11:13:36;;;;;;;0.00;0.00;;;;;;;14.01;99.21;98041.97;4911059;29;20232;-56
2022/11/15 11:16:20;;;;;;;0.00;0.00;;;;;;;14.11;100.00;98042.47;4907585;29;20252;-57
2022/11/15 11:18:53;;;;;;;0.00;0.00;;;;;;;14.20;98.78;98043.13;4912551;29;20221;-57
2022/11/15 11:21:33;;;;;;;0.00;0.00;;;;;;;14.19;95.50;98038.09;4909695;29;20240;-56
2022/11/15 11:24:08;;;;;;;0.00;0.00;;;;;;;14.20;96.71;98037.88;4909523;29;20373;-56
2022/11/15 11:26:43;;;;;;;0.00;0.00;;;;;;;14.34;96.24;98030.91;4912788;29;20650;-57
2022/11/15 11:29:28;;;;;;;0.00;0.00;;;;;;;14.39;98.15;98036.41;4910157;29;20240;-56
2022/11/15 11:32:04;;;;;;;0.00;0.00;;;;;;;14.39;95.48;98028.53;4909975;29;20239;-58
2022/11/15 11:34:45;;;;;;;0.00;0.00;;;;;;;14.58;96.55;98027.06;4910966;29;20231;-56
2022/11/15 11:37:18;;;;;;;0.00;0.00;;;;;;;14.55;91.38;98024.84;4908424;29;20239;-57
2022/11/15 11:39:56;;;;;;;0.00;0.00;;;;;;;14.61;94.43;98033.75;4903574;29;20236;-57
2022/11/15 11:42:31;;;;;;;0.00;0.00;;;;;;;14.49;96.92;98027.41;4909305;29;20321;-57
2022/11/15 11:45:06;;;;;;;0.00;0.00;;;;;;;14.46;96.48;98031.22;4900363;29;20239;-57
2022/11/15 11:47:39;;;;;;;0.00;0.00;;;;;;;14.43;95.86;98021.09;4893228;29;20288;-57
2022/11/15 11:50:14;;;;;;;0.00;0.00;;;;;;;14.46;98.42;98020.72;4889819;29;20229;-57
2022/11/15 11:52:57;;;;;;;0.00;0.00;;;;;;;14.36;98.41;98025.50;4910899;29;20244;-57
2022/11/15 11:55:28;;;;;;;0.00;0.00;;;;;;;14.23;98.64;98018.34;4909255;29;20229;-56
2022/11/15 11:58:04;;;;;;;0.00;0.00;;;;;;;14.20;94.84;98011.63;4908925;29;20275;-58
2022/11/15 12:00:35;;;;;;;0.00;0.00;;;;;;;14.25;94.20;98000.59;4912147;29;20283;-57
2022/11/15 12:03:10;;;;;;;0.00;0.00;;;;;;;14.30;95.15;98006.06;4907159;29;20666;-57
2022/11/15 12:05:40;;;;;;;0.00;0.00;;;;;;;14.34;95.64;97994.16;4911410;29;20239;-59
2022/11/15 12:08:23;;;;;;;0.00;0.00;;;;;;;14.42;97.19;97993.22;4908296;29;20307;-56
2022/11/15 12:10:59;;;;;;;0.00;0.00;;;;;;;14.39;98.71;97989.16;4909663;29;20844;-57
2022/11/15 12:13:33;;;;;;;0.00;0.00;;;;;;;14.35;98.82;97995.78;4909793;29;21099;-58
2022/11/15 12:16:06;;;;;;;0.00;0.00;;;;;;;14.29;99.56;97986.06;4909615;29;20229;-57
2022/11/15 12:18:33;;;;;;;0.00;0.00;;;;;;;14.25;99.08;97976.97;4911911;29;20659;-57
2022/11/15 12:21:05;;;;;;;0.00;0.00;;;;;;;14.28;98.77;97980.00;4909660;29;20710;-57
2022/11/15 12:23:39;;;;;;;0.00;0.00;;;;;;;14.30;94.36;97977.19;4910846;29;20761;-57
2022/11/15 12:26:09;;;;;;;0.00;0.00;;;;;;;14.35;96.59;97968.75;4908484;29;20325;-57
2022/11/15 12:28:40;;;;;;;0.00;0.00;;;;;;;14.26;94.48;97966.25;4911987;29;20248;-57
2022/11/15 12:31:20;;;;;;;0.00;0.00;;;;;;;14.36;93.44;97960.66;4907843;29;20249;-58
2022/11/15 12:33:48;;;;;;;0.00;0.00;;;;;;;14.37;91.80;97958.84;4911034;29;20236;-57
2022/11/15 12:36:35;;;;;;;0.00;0.00;;;;;;;14.28;83.46;97950.31;4909311;29;20235;-58
2022/11/15 12:39:05;;;;;;;0.00;0.00;;;;;;;14.44;84.19;97936.88;4907817;29;20231;-58
2022/11/15 12:41:33;;;;;;;0.00;0.00;;;;;;;14.44;83.23;97933.47;4911245;29;20314;-57
2022/11/15 12:44:01;;;;;;;0.00;0.00;;;;;;;14.39;81.73;97933.22;4908293;29;20239;-55
2022/11/15 12:47:22;;;;;;;0.00;0.00;;;;;;;14.26;83.99;97921.63;4910700;29;20229;-57
2022/11/15 12:49:49;;;;;;;0.00;0.00;;;;;;;14.11;81.91;97906.00;4906452;29;20236;-59
2022/11/15 12:52:17;;;;;;;0.00;0.00;;;;;;;14.18;80.58;97900.78;4909954;29;20246;-57
2022/11/15 12:55:06;;;;;;;0.00;0.00;;;;;;;14.15;83.35;97894.13;4910377;29;20242;-58
2022/11/15 12:57:42;;;;;;;0.00;0.00;;;;;;;14.04;82.52;97905.13;4912099;29;20235;-59
2022/11/15 13:00:38;;;;;;;0.00;0.00;;;;;;;13.99;83.29;97895.19;4907577;29;20268;-58